Craig, AK

5:45 AM AKST on December 19, 2014 (GMT -0900)
Klawock | Change Station
CLOSE
Current Station
Airport
Location: Klawock,
Elevation: 79 ft
Nearby Weather Stations

Elev 79 ft 55.58 °N, 133.08 °W | Updated 52 minutes ago

Scattered Clouds
Scattered Clouds
37 °F
Feels Like 32 °F
N
6
Wind Variable Wind from Variable

Today
High -- | Low -- °F
--% Chance of Precip.
Yesterday
High -- | Low -- °F
Precip. -- in
8:17 AM 3:21 PM
Waning Crescent, 7% visible
Pressure 29.31 in
Visibility 10.0 miles
Clouds Scattered Clouds 3800 ft
Windchill 32 °F
Dew Point 35 °F
Humidity 93%
Rainfall 0.02 in
Snow Depth Not available.
UV 0 out of 12
Pollen Not available.
Air Quality Not available.
Flu Activity Not available.
METAR PAKW 191353Z AUTO VRB05KT 10SM SCT038 03/02 A2931 RMK AO2 SLP924 T00280017 TSNO

More Conditions Fewer Conditions

Pressure 29.31 in
Visibility 10.0 miles
Clouds Scattered Clouds 3800 ft
Windchill 32 °F
Dew Point 35 °F
Humidity 93%
Rainfall 0.02 in
Snow Depth Not available.
UV 0 out of 12
Pollen Not available.
Air Quality Not available.
Flu Activity Not available.
METAR PAKW 191353Z AUTO VRB05KT 10SM SCT038 03/02 A2931 RMK AO2 SLP924 T00280017 TSNO

More Conditions Fewer Conditions

10-Day Weather Forecast

Almanac

Astronomy

Dec. 19, 2014 Rise Set
Actual Time
Civil Twilight
Nautical Twilight
Astronomical Twilight
Moon
Length of Visible Light
Length of Day
Tomorrow will be .
, % of the Moon is Illuminated

Today's Extremes

State Highs State Lows

Community

WunderPhotos

Upload Photos

1,778,988 photos uploaded!

WunderBlogs® & News

Nearby

Air Quality

  Air Quality AQ Index Pollutant
Not available.

Snow Depth

Station Depth Elevation

Earthquake Activity

City Distance Mag. Time & Date
Minimum magnitude displayed is 2.5.

Coastal Water Temperatures

Place Temperature

Nearby Weather Stations